Herod, Illinois
Current Conditions -  °F | °C
As of 4:55 AM on Thursday 23 Oct 2014 (Local Time) from KHSB Reporting Station
Moderate Fog Moderate Fog  
Wind Chill: 34°   Ceiling: 100
Heat Index: 34°   Visibility: 0.5mi
Dew Point: 34°   Wind: 0mph
Humidity: 100%   Direction: NA
Pressure: 30.24"   Gusts: NA
Location:  37.58°N, 88.44°W
Report Text: KHSB 230955Z AUTO 00000KT 1/2SM FG OVC001 01/01 A3024 RMK AO2 T00120012
Loading
Personal Weather Stations






























Interactive Weather Map
Tropical Storm Tracking
New forecast layout! Learn more

10-Day Weather Forecast

Advertisements
Track Severe Weather on mobile